.
WxDataArchive / Data Records for 2013-04-22
2013-04-21 April 2013 2013-04-23

Data Records for Monday, 22 April 2013

Time	Temp	Chill	HIndex	Humid	Dewpt	 Wind 	HiWind	WindDir	Rain 	Barom 
-----	----	-----	------	-----	-----	------	------	-------	-----	----- 
00:00	37.6	37.6	37.6	74	30.1	3	7	90	0.00	30.431 
00:05	37.5	37.5	37.5	74	30.0	3	7	90	0.00	30.431 
00:10	37.2	37.2	37.2	73	29.4	3	9	90	0.00	30.431 
00:15	37.2	33.2	37.2	73	29.4	5	10	90	0.00	30.429 
00:20	37.0	33.9	37.0	72	28.8	4	7	90	0.00	30.429 
00:25	36.9	36.9	36.9	73	29.1	2	6	90	0.00	30.429 
00:30	36.8	36.8	36.8	74	29.3	2	5	90	0.00	30.427 
00:35	36.6	36.6	36.6	74	29.1	2	7	90	0.00	30.427 
00:40	36.3	36.3	36.3	75	29.1	2	4	90	0.00	30.427 
00:45	36.2	36.2	36.2	75	29.1	2	4	90	0.00	30.424 
00:50	36.0	36.0	36.0	76	29.2	1	3	90	0.00	30.424 
00:55	35.8	35.8	35.8	76	29.0	2	4	90	0.00	30.424 
01:00	35.6	35.6	35.6	76	28.8	2	4	90	0.00	30.423 
01:05	35.5	35.5	35.5	77	29.0	2	5	90	0.00	30.423 
01:10	35.5	35.5	35.5	77	29.0	2	5	90	0.00	30.423 
01:15	35.3	35.3	35.3	77	28.8	1	4	90	0.00	30.417 
01:20	35.2	35.2	35.2	77	28.7	2	5	90	0.00	30.417 
01:25	35.0	35.0	35.0	77	28.5	1	3	90	0.00	30.417 
01:30	35.0	35.0	35.0	77	28.5	1	4	90	0.00	30.416 
01:35	34.9	34.9	34.9	77	28.4	1	3	112	0.00	30.416 
01:40	34.7	34.7	34.7	78	28.6	1	4	112	0.00	30.416 
01:45	34.7	34.7	34.7	78	28.6	1	5	90	0.00	30.414 
01:50	34.6	34.6	34.6	78	28.5	1	3	90	0.00	30.414 
01:55	34.4	34.4	34.4	78	28.3	2	3	90	0.00	30.414 
02:00	34.3	34.3	34.3	79	28.5	1	3	90	0.00	30.409 
02:05	34.3	34.3	34.3	79	28.5	2	4	90	0.00	30.409 
02:10	34.1	34.1	34.1	79	28.3	2	4	90	0.00	30.409 
02:15	34.1	34.1	34.1	79	28.3	1	4	90	0.00	30.400 
02:20	34.0	34.0	34.0	79	28.2	2	4	68	0.00	30.400 
02:25	34.0	34.0	34.0	79	28.2	2	4	68	0.00	30.400 
02:30	34.0	34.0	34.0	79	28.2	2	4	90	0.00	30.396 
02:35	34.0	34.0	34.0	79	28.2	1	6	90	0.00	30.396 
02:40	33.8	33.8	33.8	79	28.0	1	4	90	0.00	30.396 
02:45	33.8	33.8	33.8	80	28.3	1	3	90	0.00	30.390 
02:50	33.7	33.7	33.7	80	28.2	1	4	90	0.00	30.390 
02:55	33.7	33.7	33.7	79	27.9	1	4	90	0.00	30.390 
03:00	33.7	33.7	33.7	80	28.2	2	3	90	0.00	30.385 
03:05	33.5	33.5	33.5	80	28.0	1	4	90	0.00	30.385 
03:10	33.5	33.5	33.5	80	28.0	1	3	90	0.00	30.385 
03:15	33.4	33.4	33.4	80	27.9	1	3	90	0.00	30.383 
03:20	33.4	33.4	33.4	80	27.9	1	4	90	0.00	30.383 
03:25	33.4	33.4	33.4	80	27.9	1	3	90	0.00	30.383 
03:30	33.2	33.2	33.2	80	27.7	0	2	90	0.00	30.382 
03:35	33.2	33.2	33.2	80	27.7	0	2	90	0.00	30.382 
03:40	33.1	33.1	33.1	81	27.9	0	2	90	0.00	30.382 
03:45	32.9	32.9	32.9	81	27.7	0	2	90	0.00	30.378 
03:50	32.9	32.9	32.9	81	27.7	0	2	90	0.00	30.378 
03:55	32.9	32.9	32.9	81	27.7	0	2	90	0.00	30.378 
04:00	32.8	32.8	32.8	81	27.6	0	1	90	0.00	30.372 
04:05	32.7	32.7	32.7	81	27.5	0	0	---	0.00	30.372 
04:10	32.5	32.5	32.5	82	27.6	0	0	---	0.00	30.372 
04:15	32.4	32.4	32.4	82	27.5	0	0	---	0.00	30.369 
04:20	32.2	32.2	32.2	82	27.3	0	1	90	0.00	30.369 
04:25	32.2	32.2	32.2	83	27.6	0	1	90	0.00	30.369 
04:30	32.1	32.1	32.1	83	27.5	0	2	90	0.00	30.366 
04:35	31.9	31.9	31.9	83	27.3	0	0	---	0.00	30.366 
04:40	31.8	31.8	31.8	83	27.2	0	0	---	0.00	30.366 
04:45	31.6	31.6	31.6	83	27.0	0	1	90	0.00	30.360 
04:50	31.6	31.6	31.6	84	27.3	0	1	90	0.00	30.360 
04:55	31.5	31.5	31.5	84	27.2	0	0	---	0.00	30.360 
05:00	31.5	31.5	31.5	84	27.2	0	2	90	0.00	30.357 
05:05	31.5	31.5	31.5	84	27.2	0	1	90	0.00	30.357 
05:10	31.5	31.5	31.5	84	27.2	0	1	90	0.00	30.357 
05:15	31.3	31.3	31.3	84	27.0	0	1	90	0.00	30.356 
05:20	31.2	31.2	31.2	84	26.9	0	0	---	0.00	30.356 
05:25	31.0	31.0	31.0	84	26.7	0	0	---	0.00	30.356 
05:30	31.0	31.0	31.0	84	26.7	0	0	---	0.00	30.357 
05:35	30.9	30.9	30.9	85	26.9	0	0	---	0.00	30.357 
05:40	30.7	30.7	30.7	85	26.7	0	0	---	0.00	30.357 
05:45	30.6	30.6	30.6	85	26.6	0	0	---	0.00	30.356 
05:50	30.4	30.4	30.4	85	26.4	0	0	---	0.00	30.356 
05:55	30.3	30.3	30.3	85	26.3	0	0	---	0.00	30.356 
06:00	30.1	30.1	30.1	85	26.1	0	0	---	0.00	30.358 
06:05	30.1	30.1	30.1	86	26.4	0	0	---	0.00	30.358 
06:10	30.0	30.0	30.0	86	26.3	0	0	---	0.00	30.358 
06:15	30.0	30.0	30.0	86	26.3	0	0	---	0.00	30.356 
06:20	30.0	30.0	30.0	87	26.6	0	0	---	0.00	30.356 
06:25	30.0	30.0	30.0	87	26.6	0	0	---	0.00	30.356 
06:30	30.0	30.0	30.0	87	26.6	0	1	90	0.00	30.357 
06:35	30.1	30.1	30.1	87	26.7	0	1	90	0.00	30.357 
06:40	30.3	30.3	30.3	88	27.2	0	0	---	0.00	30.357 
06:45	30.4	30.4	30.4	88	27.3	0	1	90	0.00	30.358 
06:50	30.4	30.4	30.4	88	27.3	0	1	90	0.00	30.358 
06:55	30.4	30.4	30.4	88	27.3	0	0	---	0.00	30.358 
07:00	30.6	30.6	30.6	88	27.5	0	1	90	0.00	30.357 
07:05	30.6	30.6	30.6	88	27.5	0	0	---	0.00	30.357 
07:10	30.6	30.6	30.6	88	27.5	0	1	90	0.00	30.357 
07:15	30.7	30.7	30.7	88	27.6	0	2	90	0.00	30.366 
07:20	31.0	31.0	31.0	88	27.9	0	2	90	0.00	30.366 
07:25	31.3	31.3	31.3	87	27.9	0	1	90	0.00	30.366 
07:30	31.5	31.5	31.5	87	28.1	1	3	90	0.00	30.358 
07:35	31.8	31.8	31.8	87	28.4	0	1	90	0.00	30.358 
07:40	32.2	32.2	32.2	86	28.5	1	2	90	0.00	30.358 
07:45	32.7	32.7	32.7	85	28.7	1	2	135	0.00	30.360 
07:50	33.2	33.2	33.2	84	28.9	1	3	112	0.00	30.360 
07:55	33.7	33.7	33.7	84	29.4	1	3	112	0.00	30.360 
08:00	34.1	34.1	34.1	83	29.5	1	5	112	0.00	30.361 
08:05	34.6	34.6	34.6	82	29.7	1	3	112	0.00	30.361 
08:10	35.0	35.0	35.0	81	29.8	1	4	112	0.00	30.361 
08:15	35.3	35.3	35.3	80	29.8	2	4	112	0.00	30.364 
08:20	35.5	35.5	35.5	80	30.0	3	6	112	0.00	30.364 
08:25	35.9	35.9	35.9	80	30.3	2	4	90	0.00	30.364 
08:30	36.3	36.3	36.3	79	30.4	2	5	90	0.00	30.359 
08:35	36.5	36.5	36.5	78	30.3	3	6	90	0.00	30.359 
08:40	37.0	37.0	37.0	78	30.8	1	3	112	0.00	30.359 
08:45	37.3	37.3	37.3	77	30.8	3	5	90	0.00	30.355 
08:50	37.6	37.6	37.6	77	31.1	2	5	112	0.00	30.355 
08:55	38.2	38.2	38.2	77	31.6	1	5	112	0.00	30.355 
09:00	38.8	38.8	38.8	76	31.9	1	3	112	0.00	30.352 
09:05	39.2	39.2	39.2	76	32.3	1	4	112	0.00	30.352 
09:10	39.8	39.8	39.8	75	32.5	1	3	112	0.00	30.352 
09:15	40.3	40.3	40.3	73	32.3	1	3	112	0.00	30.354 
09:20	41.1	41.1	41.1	74	33.5	1	3	112	0.00	30.354 
09:25	41.3	41.3	41.3	72	33.0	2	5	112	0.00	30.354 
09:30	41.8	41.8	41.8	73	33.8	1	3	112	0.00	30.352 
09:35	42.2	42.2	42.2	71	33.5	2	4	112	0.00	30.352 
09:40	42.8	42.8	42.8	71	34.1	1	4	112	0.00	30.352 
09:45	43.1	43.1	43.1	70	34.0	2	5	112	0.00	30.349 
09:50	43.3	43.3	43.3	70	34.2	3	7	90	0.00	30.349 
09:55	43.8	43.8	43.8	69	34.3	2	5	112	0.00	30.349 
10:00	44.5	44.5	44.5	67	34.2	2	5	112	0.00	30.348 
10:05	45.2	45.2	45.2	65	34.1	2	5	112	0.00	30.348 
10:10	45.8	45.8	45.8	61	33.1	2	4	90	0.00	30.348 
10:15	46.7	46.7	46.7	57	32.3	1	4	90	0.00	30.343 
10:20	47.1	47.1	47.1	57	32.7	3	7	90	0.00	30.343 
10:25	47.4	47.4	47.4	56	32.5	2	6	90	0.00	30.343 
10:30	47.9	47.9	47.9	55	32.5	2	5	90	0.00	30.341 
10:35	48.2	48.2	48.2	54	32.3	3	7	90	0.00	30.341 
10:40	48.8	48.8	48.8	53	32.4	1	5	90	0.00	30.341 
10:45	49.6	49.6	49.6	52	32.7	2	5	90	0.00	30.338 
10:50	50.2	50.2	50.2	54	34.2	1	5	112	0.00	30.338 
10:55	51.0	51.0	51.0	51	33.5	1	4	112	0.00	30.338 
11:00	51.4	51.4	51.4	50	33.4	2	5	112	0.00	30.334 
11:05	51.7	51.7	51.7	49	33.2	2	5	90	0.00	30.334 
11:10	52.3	52.3	52.3	52	35.2	1	4	90	0.00	30.334 
11:15	52.9	52.9	52.9	48	33.7	0	3	90	0.00	30.335 
11:20	53.6	53.6	53.6	49	34.9	1	3	90	0.00	30.335 
11:25	53.6	53.6	53.6	49	34.9	1	4	90	0.00	30.335 
11:30	53.8	53.8	53.8	45	33.0	2	5	90	0.00	30.330 
11:35	53.9	53.9	53.9	46	33.6	1	3	90	0.00	30.330 
11:40	54.5	54.5	54.5	45	33.6	2	4	90	0.00	30.330 
11:45	55.0	55.0	55.0	44	33.5	1	4	90	0.00	30.330 
11:50	55.1	55.1	55.1	46	34.7	2	4	112	0.00	30.330 
11:55	55.4	55.4	55.4	46	35.0	2	6	90	0.00	30.330 
12:00	56.2	56.2	56.2	47	36.2	0	4	90	0.00	30.327 
12:05	56.7	56.7	56.7	42	33.9	1	5	90	0.00	30.327 
12:10	56.6	56.6	56.6	43	34.4	3	5	112	0.00	30.327 
12:15	56.9	56.9	56.9	37	30.9	2	5	112	0.00	30.322 
12:20	57.5	57.5	57.5	43	35.2	2	6	112	0.00	30.322 
12:25	57.6	57.6	57.6	40	33.5	1	4	112	0.00	30.322 
12:30	58.0	58.0	58.0	40	33.8	2	4	112	0.00	30.312 
12:35	58.0	58.0	58.0	41	34.4	2	5	112	0.00	30.312 
12:40	58.3	58.3	58.3	37	32.1	3	8	112	0.00	30.312 
12:45	58.1	58.1	58.1	36	31.3	2	6	112	0.00	30.308 
12:50	58.6	58.6	58.6	39	33.7	1	5	112	0.00	30.308 
12:55	59.0	59.0	59.0	40	34.7	3	7	135	0.00	30.308 
13:00	58.9	58.9	58.9	38	33.3	2	6	90	0.00	30.298 
13:05	58.6	58.6	58.6	34	30.3	4	7	90	0.00	30.298 
13:10	58.3	58.3	58.3	33	29.3	3	7	90	0.00	30.298 
13:15	58.4	58.4	58.4	33	29.4	2	5	90	0.00	30.295 
13:20	59.2	59.2	59.2	36	32.3	1	7	90	0.00	30.295 
13:25	59.9	59.9	59.9	34	31.5	3	6	112	0.00	30.295 
13:30	59.8	59.8	59.8	33	30.6	2	6	90	0.00	30.287 
13:35	59.9	59.9	59.9	35	32.2	3	7	112	0.00	30.287 
13:40	60.1	60.1	60.1	36	33.1	3	9	112	0.00	30.287 
13:45	59.9	59.9	59.9	32	30.0	3	8	90	0.00	30.279 
13:50	60.2	60.2	60.2	31	29.5	2	6	90	0.00	30.279 
13:55	60.7	60.7	60.7	31	29.9	2	6	112	0.00	30.279 
14:00	60.9	60.9	60.9	29	28.4	2	7	90	0.00	30.266 
14:05	60.9	60.9	60.9	33	31.6	2	5	112	0.00	30.266 
14:10	61.0	61.0	61.0	30	29.3	2	5	112	0.00	30.266 
14:15	61.0	61.0	61.0	30	29.3	4	7	112	0.00	30.261 
14:20	61.0	61.0	61.0	32	30.9	3	7	90	0.00	30.261 
14:25	61.3	61.3	61.3	30	29.6	2	9	90	0.00	30.261 
14:30	61.8	61.8	61.8	35	33.9	1	4	90	0.00	30.251 
14:35	62.1	62.1	62.1	31	31.1	2	5	112	0.00	30.251 
14:40	61.6	61.6	61.6	31	30.7	3	7	90	0.00	30.251 
14:45	61.6	61.6	61.6	30	29.9	3	12	90	0.00	30.246 
14:50	61.8	61.8	61.8	32	31.6	2	5	90	0.00	30.246 
14:55	62.3	62.3	62.3	32	32.1	1	3	112	0.00	30.246 
15:00	62.6	62.6	62.6	29	29.9	2	5	112	0.00	30.242 
15:05	62.7	62.7	62.7	28	29.1	3	7	90	0.00	30.242 
15:10	63.1	63.1	63.1	29	30.3	2	5	112	0.00	30.242 
15:15	63.4	63.4	63.4	31	32.2	1	5	112	0.00	30.234 
15:20	63.4	63.4	63.4	31	32.2	2	6	90	0.00	30.234 
15:25	63.5	63.5	63.5	28	29.8	2	6	90	0.00	30.234 
15:30	63.1	63.1	63.1	28	29.5	4	9	90	0.00	30.230 
15:35	62.7	62.7	62.7	29	30.0	1	5	90	0.00	30.230 
15:40	63.1	63.1	63.1	28	29.5	3	7	90	0.00	30.230 
15:45	63.4	63.4	63.4	28	29.7	2	5	90	0.00	30.222 
15:50	63.7	63.7	63.7	29	30.8	2	5	112	0.00	30.222 
15:55	64.0	64.0	64.0	31	32.8	1	3	112	0.00	30.222 
16:00	64.2	64.2	64.2	27	29.5	1	5	112	0.00	30.221 
16:05	64.5	64.5	64.5	32	34.0	1	5	112	0.00	30.221 
16:10	64.5	64.5	64.5	28	30.7	2	5	90	0.00	30.221 
16:15	64.2	64.2	64.2	28	30.4	1	3	90	0.00	30.216 
16:20	64.0	64.0	64.0	27	29.4	1	6	90	0.00	30.216 
16:25	64.0	64.0	64.0	27	29.4	3	10	90	0.00	30.216 
16:30	63.5	63.5	63.5	27	28.9	3	9	68	0.00	30.203 
16:35	63.2	63.2	63.2	29	30.4	1	5	68	0.00	30.203 
16:40	63.7	63.7	63.7	30	31.7	2	6	112	0.00	30.203 
16:45	64.0	64.0	64.0	27	29.4	2	5	112	0.00	30.197 
16:50	64.0	64.0	64.0	27	29.4	1	5	90	0.00	30.197 
16:55	64.2	64.2	64.2	31	32.9	1	5	112	0.00	30.197 
17:00	64.2	64.2	64.2	31	32.9	2	5	90	0.00	30.192 
17:05	64.5	64.5	64.5	28	30.7	1	4	90	0.00	30.192 
17:10	64.5	64.5	64.5	28	30.7	1	4	112	0.00	30.192 
17:15	64.7	64.7	64.7	28	30.8	1	3	112	0.00	30.189 
17:20	64.8	64.8	64.8	28	30.9	1	4	112	0.00	30.189 
17:25	65.3	65.3	65.3	30	33.1	0	2	112	0.00	30.189 
17:30	65.2	65.2	65.2	27	30.4	2	7	90	0.00	30.182 
17:35	64.7	64.7	64.7	28	30.8	3	8	90	0.00	30.182 
17:40	64.2	64.2	64.2	28	30.4	3	6	90	0.00	30.182 
17:45	64.0	64.0	64.0	28	30.2	3	7	90	0.00	30.173 
17:50	64.0	64.0	64.0	28	30.2	3	11	90	0.00	30.173 
17:55	64.2	64.2	64.2	28	30.4	2	4	90	0.00	30.173 
18:00	64.2	64.2	64.2	27	29.5	1	5	112	0.00	30.169 
18:05	64.0	64.0	64.0	28	30.2	2	6	112	0.00	30.169 
18:10	63.9	63.9	63.9	29	31.0	2	5	112	0.00	30.169 
18:15	63.9	63.9	63.9	29	31.0	1	6	112	0.00	30.162 
18:20	63.9	63.9	63.9	29	31.0	2	5	112	0.00	30.162 
18:25	63.9	63.9	63.9	29	31.0	1	3	112	0.00	30.162 
18:30	63.9	63.9	63.9	28	30.2	2	6	90	0.00	30.161 
18:35	63.7	63.7	63.7	30	31.7	2	3	135	0.00	30.161 
18:40	63.5	63.5	63.5	29	30.7	2	7	135	0.00	30.161 
18:45	63.4	63.4	63.4	31	32.2	2	5	112	0.00	30.154 
18:50	63.2	63.2	63.2	31	32.1	1	4	90	0.00	30.154 
18:55	63.2	63.2	63.2	32	32.9	1	4	90	0.00	30.154 
19:00	63.2	63.2	63.2	31	32.1	1	4	90	0.00	30.153 
19:05	63.2	63.2	63.2	30	31.3	1	5	90	0.00	30.153 
19:10	63.2	63.2	63.2	32	32.9	1	5	90	0.00	30.153 
19:15	63.1	63.1	63.1	31	32.0	1	4	112	0.00	30.152 
19:20	63.1	63.1	63.1	30	31.2	2	5	90	0.00	30.152 
19:25	62.9	62.9	62.9	31	31.8	1	3	112	0.00	30.152 
19:30	62.9	62.9	62.9	31	31.8	1	3	112	0.00	30.150 
19:35	62.6	62.6	62.6	32	32.3	1	2	68	0.00	30.150 
19:40	62.4	62.4	62.4	32	32.2	1	3	68	0.00	30.150 
19:45	62.3	62.3	62.3	33	32.8	1	3	135	0.00	30.146 
19:50	62.0	62.0	62.0	33	32.6	0	2	135	0.00	30.146 
19:55	61.6	61.6	61.6	34	33.0	0	2	135	0.00	30.146 
20:00	61.3	61.3	61.3	35	33.4	0	3	135	0.00	30.136 
20:05	61.0	61.0	61.0	36	33.9	0	2	135	0.00	30.136 
20:10	60.5	60.5	60.5	36	33.4	1	4	135	0.00	30.136 
20:15	60.4	60.4	60.4	36	33.3	0	1	135	0.00	30.134 
20:20	60.1	60.1	60.1	36	33.1	0	1	135	0.00	30.134 
20:25	59.6	59.6	59.6	37	33.3	0	2	135	0.00	30.134 
20:30	59.5	59.5	59.5	38	33.9	0	1	135	0.00	30.134 
20:35	59.2	59.2	59.2	38	33.6	0	1	135	0.00	30.134 
20:40	58.9	58.9	58.9	39	34.0	0	1	135	0.00	30.134 
20:45	58.4	58.4	58.4	40	34.2	0	1	135	0.00	30.134 
20:50	58.1	58.1	58.1	40	33.9	0	2	135	0.00	30.134 
20:55	58.0	58.0	58.0	41	34.4	0	1	135	0.00	30.134 
21:00	57.8	57.8	57.8	41	34.3	0	0	---	0.00	30.138 
21:05	57.3	57.3	57.3	42	34.4	0	0	---	0.00	30.138 
21:10	56.7	56.7	56.7	43	34.5	0	0	---	0.00	30.138 
21:15	56.2	56.2	56.2	44	34.6	0	0	---	0.00	30.139 
21:20	55.7	55.7	55.7	44	34.1	0	0	---	0.00	30.139 
21:25	55.1	55.1	55.1	45	34.1	0	0	---	0.00	30.139 
21:30	54.7	54.7	54.7	46	34.3	0	0	---	0.00	30.143 
21:35	54.4	54.4	54.4	47	34.6	0	0	---	0.00	30.143 
21:40	53.9	53.9	53.9	49	35.2	0	0	---	0.00	30.143 
21:45	53.5	53.5	53.5	50	35.3	0	0	---	0.00	30.147 
21:50	53.1	53.1	53.1	51	35.5	0	0	---	0.00	30.147 
21:55	52.5	52.5	52.5	51	34.9	0	0	---	0.00	30.147 
22:00	52.0	52.0	52.0	53	35.4	0	0	---	0.00	30.151 
22:05	51.9	51.9	51.9	54	35.8	1	5	135	0.00	30.151 
22:10	52.5	52.5	52.5	54	36.3	4	9	90	0.00	30.151 
22:15	52.5	52.5	52.5	55	36.8	3	6	90	0.00	30.149 
22:20	52.2	52.2	52.2	55	36.5	2	6	90	0.00	30.149 
22:25	51.9	51.9	51.9	56	36.7	3	6	90	0.00	30.149 
22:30	51.6	51.6	51.6	57	36.9	3	7	90	0.00	30.151 
22:35	51.3	51.3	51.3	57	36.6	3	6	90	0.00	30.151 
22:40	51.0	51.0	51.0	58	36.7	2	5	90	0.00	30.151 
22:45	50.7	50.7	50.7	59	36.9	2	5	90	0.00	30.150 
22:50	50.4	50.4	50.4	59	36.6	2	5	90	0.00	30.150 
22:55	50.2	50.2	50.2	60	36.9	2	5	90	0.00	30.150 
23:00	49.9	49.9	49.9	61	37.0	2	5	90	0.00	30.150 
23:05	49.8	49.8	49.8	61	36.9	3	6	90	0.00	30.150 
23:10	49.6	49.6	49.6	61	36.7	3	5	90	0.00	30.150 
23:15	49.5	49.5	49.5	62	37.0	2	5	90	0.00	30.142 
23:20	49.2	49.2	49.2	62	36.7	3	6	90	0.00	30.142 
23:25	49.1	49.1	49.1	63	37.1	2	5	90	0.00	30.142 
23:30	48.9	48.9	48.9	64	37.3	2	4	90	0.00	30.141 
23:35	48.8	48.8	48.8	64	37.2	2	5	90	0.00	30.141 
23:40	48.5	48.5	48.5	65	37.3	1	4	90	0.00	30.141 
23:45	48.2	48.2	48.2	65	37.0	1	3	90	0.00	30.136 
23:50	48.0	48.0	48.0	66	37.2	1	5	90	0.00	30.136 
23:55	47.7	47.7	47.7	67	37.3	1	2	90	0.00	30.136 

CoCoRaHS
IN-AL-39
A2 Web Hosting
Creative Commons License
GoDaddy
search engine by freefind advanced

loaded 2018-11-15 16:41:11 • last modified 2010-11-18 10:43:29
Privacy PolicyDisclaimer
• wx.awcolley.com is powered by PmWiki v.2002016 •
• all content (unless otherwise noted) © 2018 A W Colley